createdAt,value
2018-11-03T00:00:54.936Z,2.70
2018-11-03T00:05:37.841Z,2.57
2018-11-03T00:10:20.891Z,2.70
2018-11-03T00:15:03.971Z,3.10
2018-11-03T00:19:47.087Z,3.33
2018-11-03T00:24:30.041Z,3.03
2018-11-03T00:29:13.095Z,2.67
2018-11-03T00:33:55.994Z,2.83
2018-11-03T00:38:38.894Z,3.27
2018-11-03T00:43:25.597Z,2.90
2018-11-03T00:48:08.486Z,3.20
2018-11-03T00:52:51.618Z,3.10
2018-11-03T00:57:34.551Z,3.27
2018-11-03T01:02:17.642Z,3.00
2018-11-03T01:07:00.569Z,2.83
2018-11-03T01:11:44.674Z,3.10
2018-11-03T01:16:27.545Z,3.17
2018-11-03T01:21:11.418Z,3.93
2018-11-03T01:25:54.274Z,3.80
2018-11-03T01:30:37.211Z,4.20
2018-11-03T01:35:20.115Z,4.20
2018-11-03T01:40:04.243Z,4.77
2018-11-03T01:44:47.117Z,4.67
2018-11-03T01:49:32.099Z,5.07
2018-11-03T01:54:14.974Z,4.20
2018-11-03T01:58:58.882Z,6.20
2018-11-03T02:03:41.765Z,5.27
2018-11-03T02:08:24.642Z,4.83
2018-11-03T02:13:09.540Z,5.00
2018-11-03T02:17:52.362Z,5.00
2018-11-03T02:22:36.441Z,4.67
2018-11-03T02:27:19.299Z,4.73
2018-11-03T02:32:04.566Z,4.50
2018-11-03T02:36:47.430Z,4.10
2018-11-03T02:41:30.472Z,3.83
2018-11-03T02:46:13.333Z,4.13
2018-11-03T02:50:56.234Z,3.90
2018-11-03T02:55:39.097Z,3.80
2018-11-03T03:00:23.026Z,3.40
2018-11-03T03:05:07.594Z,3.10
2018-11-03T03:09:50.584Z,3.70
2018-11-03T03:14:33.472Z,2.63
2018-11-03T03:19:17.576Z,2.80
2018-11-03T03:24:00.476Z,2.67
2018-11-03T03:28:44.423Z,3.10
2018-11-03T03:33:27.265Z,2.97
2018-11-03T03:38:10.128Z,2.83
2018-11-03T03:42:54.129Z,3.60
2018-11-03T03:47:36.970Z,4.03
2018-11-03T03:52:20.866Z,3.17
2018-11-03T03:57:03.808Z,2.57
2018-11-03T04:01:47.902Z,3.30
2018-11-03T04:06:30.797Z,3.20
2018-11-03T04:11:13.946Z,3.10
2018-11-03T04:15:56.865Z,3.10
2018-11-03T04:20:39.977Z,3.50
2018-11-03T04:25:23.426Z,3.33
2018-11-03T04:30:11.252Z,3.27
2018-11-03T04:34:54.145Z,3.43
2018-11-03T04:39:38.154Z,3.77
2018-11-03T04:44:21.062Z,5.83
2018-11-03T04:49:05.227Z,8.13
2018-11-03T04:53:48.416Z,7.10
2018-11-03T04:58:32.519Z,6.37
2018-11-03T05:03:15.426Z,5.23
2018-11-03T05:07:58.356Z,5.70
2018-11-03T05:12:42.390Z,6.33
2018-11-03T05:17:25.268Z,7.50
2018-11-03T05:22:09.329Z,4.57
2018-11-03T05:26:52.215Z,4.60
2018-11-03T05:31:46.742Z,6.00
2018-11-03T05:36:29.650Z,4.53
2018-11-03T05:42:42.923Z,4.40
2018-11-03T05:47:25.819Z,4.50
2018-11-03T05:52:09.915Z,4.63
2018-11-03T05:56:52.768Z,3.80
2018-11-03T06:01:35.686Z,3.73
2018-11-03T06:06:18.584Z,3.80
2018-11-03T06:11:02.587Z,2.83
2018-11-03T06:15:45.779Z,3.70
2018-11-03T06:21:59.161Z,4.00
2018-11-03T06:26:42.036Z,3.43
2018-11-03T06:31:25.126Z,3.57
2018-11-03T06:36:08.039Z,2.77
2018-11-03T06:40:51.927Z,2.97
2018-11-03T06:45:34.786Z,3.77
2018-11-03T06:50:18.759Z,3.60
2018-11-03T06:55:01.703Z,3.10
2018-11-03T06:59:44.758Z,3.80
2018-11-03T07:04:27.643Z,3.23
2018-11-03T07:09:11.966Z,3.73
2018-11-03T07:13:54.922Z,4.13
2018-11-03T07:18:38.821Z,3.53
2018-11-03T07:23:21.703Z,3.17
2018-11-03T07:28:05.006Z,3.33
2018-11-03T07:32:47.909Z,4.13
2018-11-03T07:37:31.258Z,4.17
2018-11-03T07:42:15.322Z,4.57
2018-11-03T07:46:58.182Z,4.10
2018-11-03T07:51:41.079Z,3.70
2018-11-03T07:56:23.939Z,5.17
2018-11-03T08:01:06.878Z,3.77
2018-11-03T08:05:49.763Z,3.67
2018-11-03T08:10:32.900Z,3.13
2018-11-03T08:15:15.844Z,2.93
2018-11-03T08:19:59.981Z,3.60
2018-11-03T08:24:42.891Z,3.37
2018-11-03T08:29:26.031Z,3.77
2018-11-03T08:34:08.939Z,3.37
2018-11-03T08:38:52.997Z,10.20
2018-11-03T08:43:35.917Z,3.97
2018-11-03T08:48:23.102Z,9.50
2018-11-03T08:53:05.948Z,6.37
2018-11-03T08:57:51.292Z,4.87
2018-11-03T09:02:34.678Z,6.00
2018-11-03T09:07:17.602Z,3.60
2018-11-03T09:12:04.586Z,3.30
2018-11-03T09:16:47.512Z,2.80
2018-11-03T09:21:30.540Z,3.80
2018-11-03T09:26:13.438Z,3.40
2018-11-03T09:30:57.494Z,3.27
2018-11-03T09:35:40.421Z,2.93
2018-11-03T09:40:26.609Z,5.47
2018-11-03T09:45:10.770Z,5.27
2018-11-03T09:49:53.650Z,3.37
2018-11-03T09:54:36.571Z,3.70
2018-11-03T09:59:19.622Z,3.13
2018-11-03T10:04:02.494Z,2.90
2018-11-03T10:08:49.268Z,2.87
2018-11-03T10:13:32.184Z,2.70
2018-11-03T10:18:15.317Z,2.57
2018-11-03T10:22:58.276Z,2.50
2018-11-03T10:27:41.987Z,2.63
2018-11-03T10:32:24.904Z,2.60
2018-11-03T10:37:07.824Z,2.13
2018-11-03T10:41:52.797Z,2.50
2018-11-03T10:46:35.854Z,2.70
2018-11-03T10:51:18.847Z,2.63
2018-11-03T10:56:01.779Z,7.37
2018-11-03T11:02:59.930Z,4.13
2018-11-03T11:07:51.857Z,3.53
2018-11-03T11:12:40.756Z,5.23
2018-11-03T11:22:11.485Z,3.70
2018-11-03T11:26:54.359Z,2.30
2018-11-03T11:31:39.408Z,2.30
2018-11-03T11:36:22.436Z,3.17
2018-11-03T11:41:07.407Z,2.30
2018-11-03T11:45:50.281Z,2.50
2018-11-03T11:50:35.203Z,2.23
2018-11-03T11:55:18.236Z,3.67
2018-11-03T12:00:02.296Z,2.97
2018-11-03T12:04:45.299Z,3.90
2018-11-03T12:09:28.175Z,3.13
2018-11-03T12:14:11.083Z,2.33
2018-11-03T12:18:55.103Z,3.67
2018-11-03T12:23:38.022Z,2.60
2018-11-03T12:28:24.825Z,2.20
2018-11-03T12:33:07.724Z,2.00
2018-11-03T12:37:51.673Z,2.10
2018-11-03T12:42:34.590Z,2.50
2018-11-03T12:47:21.344Z,3.80
2018-11-03T12:52:04.250Z,2.50
2018-11-03T12:56:47.139Z,4.80
2018-11-03T13:01:31.283Z,3.70
2018-11-03T13:06:14.202Z,2.80
2018-11-03T13:10:58.279Z,2.63
2018-11-03T13:15:41.175Z,2.83
2018-11-03T13:20:24.307Z,2.90
2018-11-03T13:25:08.135Z,4.30
2018-11-03T13:29:51.054Z,3.10
2018-11-03T13:34:34.026Z,2.43
2018-11-03T13:39:25.802Z,2.93
2018-11-03T13:44:08.695Z,3.03
2018-11-03T13:48:53.701Z,2.80
2018-11-03T13:53:36.558Z,2.93
2018-11-03T13:58:20.737Z,3.40
2018-11-03T14:03:04.102Z,3.93
2018-11-03T14:07:47.246Z,3.47
2018-11-03T14:12:30.086Z,3.20
2018-11-03T14:17:13.095Z,3.20
2018-11-03T14:21:55.895Z,3.47
2018-11-03T14:26:38.783Z,3.67
2018-11-03T14:31:22.619Z,4.50
2018-11-03T14:36:13.331Z,4.70
2018-11-03T14:40:56.339Z,4.37
2018-11-03T14:45:40.125Z,4.67
2018-11-03T14:50:27.619Z,3.87
2018-11-03T14:55:11.560Z,4.63
2018-11-03T14:59:54.493Z,4.00
2018-11-03T15:04:37.363Z,3.90
2018-11-03T15:09:23.599Z,4.33
2018-11-03T15:14:07.995Z,5.37
2018-11-03T15:18:54.026Z,6.00
2018-11-03T15:23:36.951Z,4.97
2018-11-03T15:28:21.068Z,4.70
2018-11-03T15:33:04.058Z,4.90
2018-11-03T15:37:47.054Z,5.10
2018-11-03T15:42:29.938Z,6.13
2018-11-03T15:47:12.863Z,5.03
2018-11-03T15:51:55.754Z,4.70
2018-11-03T15:56:38.628Z,4.77
2018-11-03T16:01:21.538Z,5.20
2018-11-03T16:06:04.480Z,10.97
2018-11-03T16:10:47.598Z,4.90
2018-11-03T16:15:30.452Z,5.67
2018-11-03T16:20:13.623Z,4.80
2018-11-03T16:24:56.490Z,4.27
2018-11-03T16:29:43.435Z,7.23
2018-11-03T16:34:26.330Z,5.00
2018-11-03T16:39:11.524Z,5.10
2018-11-03T16:43:54.394Z,4.27
2018-11-03T16:48:39.326Z,9.73
2018-11-03T16:53:22.230Z,11.93
2018-11-03T16:58:07.389Z,7.53
2018-11-03T17:02:50.274Z,4.40
2018-11-03T17:07:35.192Z,4.77
2018-11-03T17:12:18.111Z,5.40
2018-11-03T17:17:03.294Z,5.97
2018-11-03T17:21:46.244Z,6.03
2018-11-03T17:26:29.273Z,7.03
2018-11-03T17:31:12.535Z,7.40
2018-11-03T17:35:55.429Z,5.50
2018-11-03T17:40:38.443Z,4.70
2018-11-03T17:45:21.353Z,4.43
2018-11-03T17:50:06.994Z,4.17
2018-11-03T17:54:50.005Z,4.40
2018-11-03T17:59:34.068Z,4.40
2018-11-03T18:04:17.008Z,5.00
2018-11-03T18:09:01.352Z,5.03
2018-11-03T18:13:44.231Z,4.57
2018-11-03T18:18:27.402Z,5.93
2018-11-03T18:23:10.298Z,6.73
2018-11-03T18:27:53.359Z,8.43
2018-11-03T18:32:36.304Z,10.83
2018-11-03T18:37:20.473Z,11.50
2018-11-03T18:42:03.434Z,13.43
2018-11-03T18:46:46.569Z,10.43
2018-11-03T18:51:29.423Z,6.43
2018-11-03T18:56:12.462Z,8.20
2018-11-03T19:00:55.862Z,6.63
2018-11-03T19:05:38.813Z,7.77
2018-11-03T19:10:22.074Z,10.00
2018-11-03T19:15:07.250Z,9.77
2018-11-03T19:19:50.954Z,9.43
2018-11-03T19:24:33.866Z,13.73
2018-11-03T19:47:54.766Z,5.03
2018-11-03T19:52:53.653Z,5.47
2018-11-03T19:57:48.711Z,4.53
2018-11-03T20:02:36.537Z,5.40
2018-11-03T20:07:46.878Z,5.67
2018-11-03T20:12:32.591Z,4.97
2018-11-03T20:22:43.696Z,4.93
2018-11-03T20:27:30.872Z,5.07
2018-11-03T20:32:24.717Z,5.10
2018-11-03T20:37:11.524Z,5.30
2018-11-03T20:41:55.547Z,4.97
2018-11-03T20:46:40.112Z,4.73
2018-11-03T20:51:23.255Z,5.83
2018-11-03T20:56:07.438Z,4.70
2018-11-03T21:00:50.504Z,5.83
2018-11-03T21:05:33.516Z,5.47
2018-11-03T21:10:16.659Z,5.50
2018-11-03T21:14:59.589Z,5.33
2018-11-03T21:19:56.932Z,5.53
2018-11-03T21:24:40.668Z,7.63
2018-11-03T21:29:24.030Z,7.10
2018-11-03T21:34:07.824Z,9.53
2018-11-03T21:38:50.967Z,8.90
2018-11-03T21:43:34.092Z,9.43
2018-11-03T21:48:17.372Z,8.37
2018-11-03T21:53:00.500Z,6.63
2018-11-03T21:57:43.642Z,5.80
2018-11-03T22:02:26.736Z,6.20
2018-11-03T22:07:10.041Z,6.23
2018-11-03T22:11:53.185Z,6.83
2018-11-03T22:16:36.396Z,5.70
2018-11-03T22:21:19.564Z,6.80
2018-11-03T22:26:02.959Z,7.00
2018-11-03T22:30:46.097Z,6.30
2018-11-03T22:35:29.298Z,6.03
2018-11-03T22:40:12.459Z,5.97
2018-11-03T22:44:55.555Z,7.93
2018-11-03T22:49:38.815Z,6.60
2018-11-03T22:54:21.906Z,6.63
2018-11-03T22:59:07.165Z,6.43
2018-11-03T23:03:50.245Z,5.77
2018-11-03T23:08:33.494Z,6.50
2018-11-03T23:13:16.714Z,6.20
2018-11-03T23:18:00.669Z,6.77
2018-11-03T23:22:43.654Z,6.07
2018-11-03T23:27:27.662Z,6.20
2018-11-03T23:32:10.638Z,6.63
2018-11-03T23:36:54.754Z,5.93
2018-11-03T23:41:38.219Z,5.67
2018-11-03T23:46:21.358Z,6.50
2018-11-03T23:51:04.368Z,8.43
2018-11-03T23:55:47.522Z,7.07
